sensor_id;sensor_type;location;lat;lon;timestamp;P1;durP1;ratioP1;P2;durP2;ratioP2
28304;SDS011;15569;42.652;23.040;2023-05-19T00:00:33;8.88;;;3.75;;
28304;SDS011;15569;42.652;23.040;2023-05-19T00:03:01;9.20;;;5.00;;
28304;SDS011;15569;42.652;23.040;2023-05-19T00:05:28;6.65;;;3.83;;
28304;SDS011;15569;42.652;23.040;2023-05-19T00:07:55;6.28;;;4.63;;
28304;SDS011;15569;42.652;23.040;2023-05-19T00:10:23;6.13;;;3.80;;
28304;SDS011;15569;42.652;23.040;2023-05-19T00:12:51;8.40;;;3.78;;
28304;SDS011;15569;42.652;23.040;2023-05-19T00:15:17;8.35;;;4.90;;
28304;SDS011;15569;42.652;23.040;2023-05-19T00:17:43;5.97;;;4.20;;
28304;SDS011;15569;42.652;23.040;2023-05-19T00:20:08;7.45;;;4.97;;
28304;SDS011;15569;42.652;23.040;2023-05-19T00:22:36;14.10;;;4.63;;
28304;SDS011;15569;42.652;23.040;2023-05-19T00:25:01;8.27;;;4.65;;
28304;SDS011;15569;42.652;23.040;2023-05-19T00:27:28;9.73;;;4.20;;
28304;SDS011;15569;42.652;23.040;2023-05-19T00:29:53;8.23;;;4.47;;
28304;SDS011;15569;42.652;23.040;2023-05-19T00:32:18;7.00;;;4.07;;
28304;SDS011;15569;42.652;23.040;2023-05-19T00:34:44;7.88;;;4.30;;
28304;SDS011;15569;42.652;23.040;2023-05-19T00:37:11;8.98;;;4.45;;
28304;SDS011;15569;42.652;23.040;2023-05-19T00:39:37;6.90;;;4.07;;
28304;SDS011;15569;42.652;23.040;2023-05-19T00:42:02;6.20;;;4.20;;
28304;SDS011;15569;42.652;23.040;2023-05-19T00:44:29;9.18;;;4.65;;
28304;SDS011;15569;42.652;23.040;2023-05-19T00:46:55;5.80;;;4.30;;
28304;SDS011;15569;42.652;23.040;2023-05-19T00:49:21;5.53;;;3.95;;
28304;SDS011;15569;42.652;23.040;2023-05-19T00:51:47;6.60;;;4.93;;
28304;SDS011;15569;42.652;23.040;2023-05-19T00:54:13;8.75;;;4.85;;
28304;SDS011;15569;42.652;23.040;2023-05-19T00:56:39;7.18;;;4.60;;
28304;SDS011;15569;42.652;23.040;2023-05-19T00:59:05;10.45;;;4.55;;
28304;SDS011;15569;42.652;23.040;2023-05-19T01:01:30;6.75;;;4.97;;
28304;SDS011;15569;42.652;23.040;2023-05-19T01:03:56;10.50;;;4.32;;
28304;SDS011;15569;42.652;23.040;2023-05-19T01:06:23;8.45;;;4.85;;
28304;SDS011;15569;42.652;23.040;2023-05-19T01:08:49;6.22;;;4.45;;
28304;SDS011;15569;42.652;23.040;2023-05-19T01:11:15;9.63;;;4.22;;
28304;SDS011;15569;42.652;23.040;2023-05-19T01:13:41;8.50;;;4.60;;
28304;SDS011;15569;42.652;23.040;2023-05-19T01:32:59;8.20;;;4.10;;
28304;SDS011;15569;42.652;23.040;2023-05-19T01:35:27;8.65;;;4.35;;
28304;SDS011;15569;42.652;23.040;2023-05-19T01:37:54;8.27;;;4.82;;
28304;SDS011;15569;42.652;23.040;2023-05-19T01:40:22;7.35;;;4.65;;
28304;SDS011;15569;42.652;23.040;2023-05-19T01:42:49;7.20;;;4.63;;
28304;SDS011;15569;42.652;23.040;2023-05-19T01:45:16;10.93;;;5.72;;
28304;SDS011;15569;42.652;23.040;2023-05-19T01:47:45;10.20;;;4.82;;
28304;SDS011;15569;42.652;23.040;2023-05-19T01:50:11;10.00;;;4.68;;
28304;SDS011;15569;42.652;23.040;2023-05-19T01:52:37;7.90;;;4.85;;
28304;SDS011;15569;42.652;23.040;2023-05-19T01:55:02;7.60;;;4.70;;
28304;SDS011;15569;42.652;23.040;2023-05-19T01:57:33;8.43;;;5.18;;
28304;SDS011;15569;42.652;23.040;2023-05-19T02:00:05;7.78;;;4.35;;
28304;SDS011;15569;42.652;23.040;2023-05-19T02:05:17;11.25;;;5.25;;
28304;SDS011;15569;42.652;23.040;2023-05-19T02:07:57;11.07;;;5.07;;
28304;SDS011;15569;42.652;23.040;2023-05-19T02:10:37;6.82;;;4.45;;
28304;SDS011;15569;42.652;23.040;2023-05-19T02:13:05;8.23;;;4.97;;
28304;SDS011;15569;42.652;23.040;2023-05-19T02:15:36;9.63;;;5.95;;
28304;SDS011;15569;42.652;23.040;2023-05-19T02:18:04;10.98;;;5.90;;
28304;SDS011;15569;42.652;23.040;2023-05-19T02:20:30;8.02;;;5.45;;
28304;SDS011;15569;42.652;23.040;2023-05-19T02:22:56;9.80;;;4.43;;
28304;SDS011;15569;42.652;23.040;2023-05-19T02:25:21;9.73;;;5.25;;
28304;SDS011;15569;42.652;23.040;2023-05-19T02:27:49;8.70;;;5.05;;
28304;SDS011;15569;42.652;23.040;2023-05-19T02:30:15;12.80;;;5.97;;
28304;SDS011;15569;42.652;23.040;2023-05-19T02:32:41;8.30;;;5.38;;
28304;SDS011;15569;42.652;23.040;2023-05-19T02:35:06;10.77;;;6.20;;
28304;SDS011;15569;42.652;23.040;2023-05-19T02:37:32;10.10;;;6.30;;
28304;SDS011;15569;42.652;23.040;2023-05-19T02:39:57;13.25;;;6.18;;
28304;SDS011;15569;42.652;23.040;2023-05-19T02:42:23;10.70;;;6.40;;
28304;SDS011;15569;42.652;23.040;2023-05-19T02:44:48;12.30;;;6.05;;
28304;SDS011;15569;42.652;23.040;2023-05-19T02:47:14;9.95;;;6.70;;
28304;SDS011;15569;42.652;23.040;2023-05-19T02:49:39;9.82;;;6.50;;
28304;SDS011;15569;42.652;23.040;2023-05-19T02:52:05;10.90;;;6.28;;
28304;SDS011;15569;42.652;23.040;2023-05-19T02:54:31;11.65;;;6.72;;
28304;SDS011;15569;42.652;23.040;2023-05-19T02:56:57;13.60;;;6.85;;
28304;SDS011;15569;42.652;23.040;2023-05-19T02:59:23;12.07;;;7.30;;
28304;SDS011;15569;42.652;23.040;2023-05-19T03:01:49;11.98;;;6.93;;
28304;SDS011;15569;42.652;23.040;2023-05-19T03:04:15;15.27;;;7.55;;
28304;SDS011;15569;42.652;23.040;2023-05-19T03:06:44;11.88;;;7.30;;
28304;SDS011;15569;42.652;23.040;2023-05-19T03:09:10;12.07;;;6.25;;
28304;SDS011;15569;42.652;23.040;2023-05-19T03:11:37;11.75;;;6.70;;
28304;SDS011;15569;42.652;23.040;2023-05-19T03:14:02;12.85;;;7.38;;
28304;SDS011;15569;42.652;23.040;2023-05-19T03:16:27;12.70;;;7.53;;
28304;SDS011;15569;42.652;23.040;2023-05-19T03:18:53;13.90;;;6.78;;
28304;SDS011;15569;42.652;23.040;2023-05-19T03:21:19;11.70;;;6.97;;
28304;SDS011;15569;42.652;23.040;2023-05-19T03:23:44;12.30;;;7.72;;
28304;SDS011;15569;42.652;23.040;2023-05-19T03:26:11;12.73;;;6.90;;
28304;SDS011;15569;42.652;23.040;2023-05-19T03:28:36;13.88;;;8.07;;
28304;SDS011;15569;42.652;23.040;2023-05-19T03:31:02;15.93;;;8.13;;
28304;SDS011;15569;42.652;23.040;2023-05-19T03:33:27;13.65;;;7.55;;
28304;SDS011;15569;42.652;23.040;2023-05-19T03:35:54;14.93;;;8.27;;
28304;SDS011;15569;42.652;23.040;2023-05-19T03:38:20;15.75;;;8.15;;
28304;SDS011;15569;42.652;23.040;2023-05-19T03:40:45;14.27;;;8.00;;
28304;SDS011;15569;42.652;23.040;2023-05-19T03:43:11;15.52;;;8.00;;
28304;SDS011;15569;42.652;23.040;2023-05-19T03:45:37;13.63;;;8.07;;
28304;SDS011;15569;42.652;23.040;2023-05-19T03:48:02;19.70;;;12.75;;
28304;SDS011;15569;42.652;23.040;2023-05-19T03:50:27;16.73;;;10.10;;
28304;SDS011;15569;42.652;23.040;2023-05-19T03:52:55;16.38;;;8.77;;
28304;SDS011;15569;42.652;23.040;2023-05-19T03:55:21;16.90;;;8.68;;
28304;SDS011;15569;42.652;23.040;2023-05-19T03:57:46;17.50;;;8.75;;
28304;SDS011;15569;42.652;23.040;2023-05-19T04:00:12;20.33;;;10.38;;
28304;SDS011;15569;42.652;23.040;2023-05-19T04:02:39;16.73;;;10.25;;
28304;SDS011;15569;42.652;23.040;2023-05-19T04:05:05;15.35;;;8.63;;
28304;SDS011;15569;42.652;23.040;2023-05-19T04:07:32;13.52;;;8.25;;
28304;SDS011;15569;42.652;23.040;2023-05-19T04:09:57;16.60;;;8.70;;
28304;SDS011;15569;42.652;23.040;2023-05-19T04:12:23;13.73;;;8.05;;
28304;SDS011;15569;42.652;23.040;2023-05-19T04:14:48;18.95;;;8.55;;
28304;SDS011;15569;42.652;23.040;2023-05-19T04:17:14;15.40;;;7.65;;
28304;SDS011;15569;42.652;23.040;2023-05-19T04:19:39;17.08;;;9.15;;
28304;SDS011;15569;42.652;23.040;2023-05-19T04:22:05;13.48;;;8.35;;
28304;SDS011;15569;42.652;23.040;2023-05-19T04:24:30;14.50;;;7.38;;
28304;SDS011;15569;42.652;23.040;2023-05-19T04:26:56;12.65;;;7.55;;
28304;SDS011;15569;42.652;23.040;2023-05-19T04:29:26;16.25;;;7.47;;
28304;SDS011;15569;42.652;23.040;2023-05-19T04:31:55;18.58;;;8.13;;
28304;SDS011;15569;42.652;23.040;2023-05-19T04:34:21;12.32;;;7.03;;
28304;SDS011;15569;42.652;23.040;2023-05-19T04:36:46;15.15;;;9.13;;
28304;SDS011;15569;42.652;23.040;2023-05-19T04:39:12;18.92;;;8.00;;
28304;SDS011;15569;42.652;23.040;2023-05-19T04:41:38;19.10;;;9.27;;
28304;SDS011;15569;42.652;23.040;2023-05-19T04:44:08;13.52;;;8.40;;
28304;SDS011;15569;42.652;23.040;2023-05-19T04:46:34;14.90;;;8.13;;
28304;SDS011;15569;42.652;23.040;2023-05-19T04:49:00;16.13;;;8.45;;
28304;SDS011;15569;42.652;23.040;2023-05-19T04:51:26;15.20;;;9.00;;
28304;SDS011;15569;42.652;23.040;2023-05-19T04:53:55;14.13;;;7.55;;
28304;SDS011;15569;42.652;23.040;2023-05-19T04:56:20;13.13;;;8.07;;
28304;SDS011;15569;42.652;23.040;2023-05-19T04:58:46;11.82;;;7.50;;
28304;SDS011;15569;42.652;23.040;2023-05-19T05:01:12;14.40;;;7.75;;
28304;SDS011;15569;42.652;23.040;2023-05-19T05:03:38;15.30;;;8.05;;
28304;SDS011;15569;42.652;23.040;2023-05-19T05:06:03;12.70;;;7.78;;
28304;SDS011;15569;42.652;23.040;2023-05-19T05:08:29;12.55;;;6.53;;
28304;SDS011;15569;42.652;23.040;2023-05-19T05:10:54;11.60;;;7.10;;
28304;SDS011;15569;42.652;23.040;2023-05-19T05:13:21;15.35;;;7.70;;
28304;SDS011;15569;42.652;23.040;2023-05-19T05:15:47;12.68;;;7.25;;
28304;SDS011;15569;42.652;23.040;2023-05-19T05:18:13;11.95;;;7.05;;
28304;SDS011;15569;42.652;23.040;2023-05-19T05:20:42;13.15;;;7.38;;
28304;SDS011;15569;42.652;23.040;2023-05-19T05:23:09;10.93;;;6.55;;
28304;SDS011;15569;42.652;23.040;2023-05-19T05:25:38;11.98;;;6.88;;
28304;SDS011;15569;42.652;23.040;2023-05-19T05:28:07;19.45;;;7.10;;
28304;SDS011;15569;42.652;23.040;2023-05-19T05:30:32;12.02;;;7.03;;
28304;SDS011;15569;42.652;23.040;2023-05-19T05:32:59;16.67;;;7.63;;
28304;SDS011;15569;42.652;23.040;2023-05-19T05:35:25;14.65;;;7.43;;
28304;SDS011;15569;42.652;23.040;2023-05-19T05:37:51;13.18;;;6.82;;
28304;SDS011;15569;42.652;23.040;2023-05-19T05:40:17;13.00;;;6.97;;
28304;SDS011;15569;42.652;23.040;2023-05-19T05:42:43;17.77;;;6.35;;
28304;SDS011;15569;42.652;23.040;2023-05-19T05:45:08;13.43;;;7.25;;
28304;SDS011;15569;42.652;23.040;2023-05-19T05:47:34;11.38;;;6.32;;
28304;SDS011;15569;42.652;23.040;2023-05-19T05:50:02;10.82;;;7.10;;
28304;SDS011;15569;42.652;23.040;2023-05-19T05:52:29;12.25;;;6.80;;
28304;SDS011;15569;42.652;23.040;2023-05-19T05:54:56;12.13;;;7.30;;
28304;SDS011;15569;42.652;23.040;2023-05-19T05:57:21;13.05;;;7.20;;
28304;SDS011;15569;42.652;23.040;2023-05-19T05:59:47;9.73;;;6.38;;
28304;SDS011;15569;42.652;23.040;2023-05-19T06:02:12;10.50;;;6.35;;
28304;SDS011;15569;42.652;23.040;2023-05-19T06:04:38;10.73;;;6.55;;
28304;SDS011;15569;42.652;23.040;2023-05-19T06:07:04;15.82;;;6.97;;
28304;SDS011;15569;42.652;23.040;2023-05-19T06:09:30;11.80;;;6.13;;
28304;SDS011;15569;42.652;23.040;2023-05-19T06:11:56;11.85;;;7.18;;
28304;SDS011;15569;42.652;23.040;2023-05-19T06:14:22;13.60;;;6.43;;
28304;SDS011;15569;42.652;23.040;2023-05-19T06:16:48;12.63;;;6.32;;
28304;SDS011;15569;42.652;23.040;2023-05-19T06:19:13;11.13;;;5.75;;
28304;SDS011;15569;42.652;23.040;2023-05-19T06:21:38;11.02;;;6.65;;
28304;SDS011;15569;42.652;23.040;2023-05-19T06:24:06;13.05;;;6.35;;
28304;SDS011;15569;42.652;23.040;2023-05-19T06:26:32;10.85;;;6.53;;
28304;SDS011;15569;42.652;23.040;2023-05-19T06:28:57;13.10;;;6.72;;
28304;SDS011;15569;42.652;23.040;2023-05-19T06:31:23;11.95;;;6.45;;
28304;SDS011;15569;42.652;23.040;2023-05-19T06:33:50;11.30;;;6.32;;
28304;SDS011;15569;42.652;23.040;2023-05-19T06:36:16;10.05;;;6.25;;
28304;SDS011;15569;42.652;23.040;2023-05-19T06:38:41;13.43;;;6.53;;
28304;SDS011;15569;42.652;23.040;2023-05-19T06:41:06;9.85;;;5.78;;
28304;SDS011;15569;42.652;23.040;2023-05-19T06:43:32;10.57;;;6.28;;
28304;SDS011;15569;42.652;23.040;2023-05-19T06:45:57;9.68;;;6.05;;
28304;SDS011;15569;42.652;23.040;2023-05-19T06:48:23;9.23;;;6.07;;
28304;SDS011;15569;42.652;23.040;2023-05-19T06:50:48;15.10;;;8.13;;
28304;SDS011;15569;42.652;23.040;2023-05-19T06:53:15;12.38;;;8.13;;
28304;SDS011;15569;42.652;23.040;2023-05-19T06:55:41;28.75;;;19.08;;
28304;SDS011;15569;42.652;23.040;2023-05-19T06:58:06;21.73;;;15.98;;
28304;SDS011;15569;42.652;23.040;2023-05-19T07:00:31;17.10;;;14.57;;
28304;SDS011;15569;42.652;23.040;2023-05-19T07:02:57;27.73;;;22.13;;
28304;SDS011;15569;42.652;23.040;2023-05-19T07:05:22;30.48;;;21.73;;
28304;SDS011;15569;42.652;23.040;2023-05-19T07:07:48;27.65;;;23.42;;
28304;SDS011;15569;42.652;23.040;2023-05-19T07:10:13;48.25;;;30.10;;
28304;SDS011;15569;42.652;23.040;2023-05-19T07:12:39;26.00;;;21.65;;
28304;SDS011;15569;42.652;23.040;2023-05-19T07:15:04;41.45;;;22.27;;
28304;SDS011;15569;42.652;23.040;2023-05-19T07:17:30;16.55;;;12.50;;
28304;SDS011;15569;42.652;23.040;2023-05-19T07:19:56;20.33;;;14.38;;
28304;SDS011;15569;42.652;23.040;2023-05-19T07:22:21;25.05;;;17.85;;
28304;SDS011;15569;42.652;23.040;2023-05-19T07:24:48;22.73;;;19.63;;
28304;SDS011;15569;42.652;23.040;2023-05-19T07:27:14;30.42;;;20.92;;
28304;SDS011;15569;42.652;23.040;2023-05-19T07:29:39;52.50;;;31.00;;
28304;SDS011;15569;42.652;23.040;2023-05-19T07:32:04;52.67;;;31.55;;
28304;SDS011;15569;42.652;23.040;2023-05-19T07:34:30;27.20;;;17.83;;
28304;SDS011;15569;42.652;23.040;2023-05-19T07:36:55;54.97;;;29.65;;
28304;SDS011;15569;42.652;23.040;2023-05-19T07:39:21;31.48;;;21.90;;
28304;SDS011;15569;42.652;23.040;2023-05-19T07:41:49;62.67;;;37.83;;
28304;SDS011;15569;42.652;23.040;2023-05-19T07:44:18;29.77;;;18.10;;
28304;SDS011;15569;42.652;23.040;2023-05-19T07:46:43;103.32;;;51.45;;
28304;SDS011;15569;42.652;23.040;2023-05-19T07:49:09;18.60;;;11.77;;
28304;SDS011;15569;42.652;23.040;2023-05-19T07:51:34;15.82;;;11.93;;
28304;SDS011;15569;42.652;23.040;2023-05-19T07:53:59;53.72;;;33.45;;
28304;SDS011;15569;42.652;23.040;2023-05-19T07:56:25;36.88;;;20.75;;
28304;SDS011;15569;42.652;23.040;2023-05-19T07:58:51;12.30;;;8.93;;
28304;SDS011;15569;42.652;23.040;2023-05-19T08:01:16;17.90;;;11.02;;
28304;SDS011;15569;42.652;23.040;2023-05-19T08:03:42;19.08;;;12.00;;
28304;SDS011;15569;42.652;23.040;2023-05-19T08:06:07;18.48;;;12.77;;
28304;SDS011;15569;42.652;23.040;2023-05-19T08:08:32;24.27;;;15.07;;
28304;SDS011;15569;42.652;23.040;2023-05-19T08:11:01;25.23;;;14.32;;
28304;SDS011;15569;42.652;23.040;2023-05-19T08:13:28;51.50;;;28.33;;
28304;SDS011;15569;42.652;23.040;2023-05-19T08:15:53;26.92;;;18.23;;
28304;SDS011;15569;42.652;23.040;2023-05-19T08:18:23;39.38;;;18.13;;
28304;SDS011;15569;42.652;23.040;2023-05-19T08:20:49;36.47;;;19.73;;
28304;SDS011;15569;42.652;23.040;2023-05-19T08:23:14;33.58;;;10.88;;
28304;SDS011;15569;42.652;23.040;2023-05-19T08:25:40;26.77;;;17.08;;
28304;SDS011;15569;42.652;23.040;2023-05-19T08:28:05;27.70;;;17.88;;
28304;SDS011;15569;42.652;23.040;2023-05-19T08:30:31;32.67;;;17.75;;
28304;SDS011;15569;42.652;23.040;2023-05-19T08:32:56;35.33;;;17.52;;
28304;SDS011;15569;42.652;23.040;2023-05-19T08:35:22;14.25;;;9.82;;
28304;SDS011;15569;42.652;23.040;2023-05-19T08:37:47;18.60;;;12.73;;
28304;SDS011;15569;42.652;23.040;2023-05-19T08:40:15;26.33;;;16.05;;
28304;SDS011;15569;42.652;23.040;2023-05-19T08:42:42;26.35;;;16.17;;
28304;SDS011;15569;42.652;23.040;2023-05-19T08:45:08;24.75;;;14.80;;
28304;SDS011;15569;42.652;23.040;2023-05-19T08:47:34;37.13;;;22.13;;
28304;SDS011;15569;42.652;23.040;2023-05-19T08:50:03;31.20;;;16.70;;
28304;SDS011;15569;42.652;23.040;2023-05-19T08:52:34;23.02;;;13.68;;
28304;SDS011;15569;42.652;23.040;2023-05-19T08:57:37;16.67;;;11.23;;
28304;SDS011;15569;42.652;23.040;2023-05-19T09:00:03;26.40;;;13.75;;
28304;SDS011;15569;42.652;23.040;2023-05-19T09:02:36;19.45;;;11.90;;
28304;SDS011;15569;42.652;23.040;2023-05-19T09:05:03;21.42;;;11.60;;
28304;SDS011;15569;42.652;23.040;2023-05-19T09:07:29;25.48;;;14.07;;
28304;SDS011;15569;42.652;23.040;2023-05-19T09:09:58;27.23;;;13.70;;
28304;SDS011;15569;42.652;23.040;2023-05-19T09:12:25;17.65;;;9.05;;
28304;SDS011;15569;42.652;23.040;2023-05-19T09:14:50;57.13;;;28.13;;
28304;SDS011;15569;42.652;23.040;2023-05-19T09:17:16;33.63;;;19.60;;
28304;SDS011;15569;42.652;23.040;2023-05-19T09:19:45;23.90;;;14.43;;
28304;SDS011;15569;42.652;23.040;2023-05-19T09:22:13;27.67;;;14.30;;
28304;SDS011;15569;42.652;23.040;2023-05-19T09:24:39;23.92;;;13.18;;
28304;SDS011;15569;42.652;23.040;2023-05-19T09:27:05;35.03;;;20.13;;
28304;SDS011;15569;42.652;23.040;2023-05-19T09:29:30;28.75;;;14.43;;
28304;SDS011;15569;42.652;23.040;2023-05-19T09:31:56;19.65;;;12.07;;
28304;SDS011;15569;42.652;23.040;2023-05-19T09:34:25;23.92;;;12.65;;
28304;SDS011;15569;42.652;23.040;2023-05-19T09:36:51;14.57;;;7.63;;
28304;SDS011;15569;42.652;23.040;2023-05-19T09:39:18;27.70;;;14.85;;
28304;SDS011;15569;42.652;23.040;2023-05-19T09:41:44;16.27;;;10.05;;
28304;SDS011;15569;42.652;23.040;2023-05-19T09:44:44;32.42;;;13.98;;
28304;SDS011;15569;42.652;23.040;2023-05-19T09:47:02;29.60;;;15.52;;
28304;SDS011;15569;42.652;23.040;2023-05-19T09:49:28;22.63;;;13.43;;
28304;SDS011;15569;42.652;23.040;2023-05-19T09:51:57;29.77;;;16.05;;
28304;SDS011;15569;42.652;23.040;2023-05-19T09:54:24;23.27;;;12.30;;
28304;SDS011;15569;42.652;23.040;2023-05-19T09:57:04;15.43;;;9.18;;
28304;SDS011;15569;42.652;23.040;2023-05-19T09:59:31;20.35;;;12.05;;
28304;SDS011;15569;42.652;23.040;2023-05-19T10:01:57;18.67;;;10.77;;
28304;SDS011;15569;42.652;23.040;2023-05-19T10:04:24;19.45;;;9.75;;
28304;SDS011;15569;42.652;23.040;2023-05-19T10:06:54;21.05;;;12.18;;
28304;SDS011;15569;42.652;23.040;2023-05-19T10:09:23;20.10;;;10.10;;
28304;SDS011;15569;42.652;23.040;2023-05-19T10:11:53;18.85;;;10.38;;
28304;SDS011;15569;42.652;23.040;2023-05-19T10:14:23;18.42;;;11.70;;
28304;SDS011;15569;42.652;23.040;2023-05-19T10:16:54;16.63;;;9.27;;
28304;SDS011;15569;42.652;23.040;2023-05-19T10:19:21;13.45;;;7.75;;
28304;SDS011;15569;42.652;23.040;2023-05-19T10:21:48;18.52;;;10.43;;
28304;SDS011;15569;42.652;23.040;2023-05-19T10:24:14;25.05;;;14.80;;
28304;SDS011;15569;42.652;23.040;2023-05-19T10:26:41;21.40;;;12.88;;
28304;SDS011;15569;42.652;23.040;2023-05-19T10:29:09;11.18;;;7.70;;
28304;SDS011;15569;42.652;23.040;2023-05-19T10:31:36;18.27;;;10.23;;
28304;SDS011;15569;42.652;23.040;2023-05-19T10:34:27;19.52;;;10.93;;
28304;SDS011;15569;42.652;23.040;2023-05-19T10:39:45;16.63;;;9.95;;
28304;SDS011;15569;42.652;23.040;2023-05-19T10:42:14;26.52;;;13.82;;
28304;SDS011;15569;42.652;23.040;2023-05-19T10:47:24;15.57;;;9.90;;
28304;SDS011;15569;42.652;23.040;2023-05-19T10:49:52;19.77;;;10.27;;
28304;SDS011;15569;42.652;23.040;2023-05-19T10:52:20;23.42;;;11.68;;
28304;SDS011;15569;42.652;23.040;2023-05-19T10:54:47;19.45;;;11.88;;
28304;SDS011;15569;42.652;23.040;2023-05-19T10:57:13;17.00;;;9.55;;
28304;SDS011;15569;42.652;23.040;2023-05-19T10:59:42;16.52;;;9.82;;
28304;SDS011;15569;42.652;23.040;2023-05-19T11:02:35;17.27;;;9.80;;
28304;SDS011;15569;42.652;23.040;2023-05-19T11:05:12;17.95;;;10.13;;
28304;SDS011;15569;42.652;23.040;2023-05-19T11:07:41;19.02;;;10.30;;
28304;SDS011;15569;42.652;23.040;2023-05-19T11:10:08;15.95;;;10.10;;
28304;SDS011;15569;42.652;23.040;2023-05-19T11:12:41;16.98;;;9.50;;
28304;SDS011;15569;42.652;23.040;2023-05-19T11:15:15;11.95;;;7.55;;
28304;SDS011;15569;42.652;23.040;2023-05-19T11:17:41;15.73;;;10.43;;
28304;SDS011;15569;42.652;23.040;2023-05-19T11:20:19;16.70;;;9.32;;
28304;SDS011;15569;42.652;23.040;2023-05-19T11:22:59;14.43;;;8.63;;
28304;SDS011;15569;42.652;23.040;2023-05-19T11:25:44;13.60;;;8.15;;
28304;SDS011;15569;42.652;23.040;2023-05-19T11:28:16;11.82;;;7.93;;
28304;SDS011;15569;42.652;23.040;2023-05-19T11:30:49;18.80;;;10.50;;
28304;SDS011;15569;42.652;23.040;2023-05-19T11:33:18;20.35;;;11.02;;
28304;SDS011;15569;42.652;23.040;2023-05-19T11:35:47;20.77;;;9.98;;
28304;SDS011;15569;42.652;23.040;2023-05-19T11:38:15;14.90;;;7.75;;
28304;SDS011;15569;42.652;23.040;2023-05-19T11:40:42;19.98;;;10.57;;
28304;SDS011;15569;42.652;23.040;2023-05-19T11:43:08;16.05;;;8.00;;
28304;SDS011;15569;42.652;23.040;2023-05-19T11:45:34;18.08;;;9.20;;
28304;SDS011;15569;42.652;23.040;2023-05-19T11:47:59;19.75;;;9.70;;
28304;SDS011;15569;42.652;23.040;2023-05-19T11:50:26;16.55;;;9.80;;
28304;SDS011;15569;42.652;23.040;2023-05-19T11:52:52;15.00;;;7.45;;
28304;SDS011;15569;42.652;23.040;2023-05-19T11:55:21;13.90;;;8.40;;
28304;SDS011;15569;42.652;23.040;2023-05-19T12:00:25;16.60;;;10.75;;
28304;SDS011;15569;42.652;23.040;2023-05-19T12:02:51;21.27;;;10.90;;
28304;SDS011;15569;42.652;23.040;2023-05-19T12:05:17;12.88;;;7.05;;
28304;SDS011;15569;42.652;23.040;2023-05-19T12:07:43;14.98;;;8.85;;
28304;SDS011;15569;42.652;23.040;2023-05-19T12:10:11;9.27;;;6.57;;
28304;SDS011;15569;42.652;23.040;2023-05-19T12:12:36;17.67;;;10.50;;
28304;SDS011;15569;42.652;23.040;2023-05-19T12:15:02;17.42;;;10.57;;
28304;SDS011;15569;42.652;23.040;2023-05-19T12:17:30;11.80;;;7.93;;
28304;SDS011;15569;42.652;23.040;2023-05-19T12:19:56;15.70;;;8.80;;
28304;SDS011;15569;42.652;23.040;2023-05-19T12:22:22;13.68;;;7.97;;
28304;SDS011;15569;42.652;23.040;2023-05-19T12:24:47;15.32;;;8.95;;
28304;SDS011;15569;42.652;23.040;2023-05-19T12:29:47;14.05;;;8.52;;
28304;SDS011;15569;42.652;23.040;2023-05-19T12:32:17;12.77;;;7.45;;
28304;SDS011;15569;42.652;23.040;2023-05-19T12:34:43;11.93;;;7.30;;
28304;SDS011;15569;42.652;23.040;2023-05-19T12:37:09;12.38;;;7.50;;
28304;SDS011;15569;42.652;23.040;2023-05-19T12:39:35;18.52;;;7.88;;
28304;SDS011;15569;42.652;23.040;2023-05-19T12:42:06;48.90;;;21.27;;
28304;SDS011;15569;42.652;23.040;2023-05-19T12:44:50;16.83;;;9.13;;
28304;SDS011;15569;42.652;23.040;2023-05-19T12:47:17;14.63;;;9.40;;
28304;SDS011;15569;42.652;23.040;2023-05-19T12:49:55;14.07;;;7.70;;
28304;SDS011;15569;42.652;23.040;2023-05-19T12:52:25;19.27;;;9.83;;
28304;SDS011;15569;42.652;23.040;2023-05-19T12:54:59;16.38;;;8.23;;
28304;SDS011;15569;42.652;23.040;2023-05-19T12:57:34;18.17;;;8.73;;
28304;SDS011;15569;42.652;23.040;2023-05-19T13:00:04;17.55;;;10.65;;
28304;SDS011;15569;42.652;23.040;2023-05-19T13:02:35;28.95;;;12.18;;
28304;SDS011;15569;42.652;23.040;2023-05-19T13:05:18;10.05;;;6.57;;
28304;SDS011;15569;42.652;23.040;2023-05-19T13:10:19;27.00;;;13.70;;
28304;SDS011;15569;42.652;23.040;2023-05-19T13:12:44;20.27;;;11.50;;
28304;SDS011;15569;42.652;23.040;2023-05-19T13:15:10;19.60;;;11.00;;
28304;SDS011;15569;42.652;23.040;2023-05-19T13:17:35;41.80;;;19.05;;
28304;SDS011;15569;42.652;23.040;2023-05-19T13:20:01;27.58;;;13.63;;
28304;SDS011;15569;42.652;23.040;2023-05-19T13:22:28;19.25;;;9.55;;
28304;SDS011;15569;42.652;23.040;2023-05-19T13:24:54;11.38;;;6.55;;
28304;SDS011;15569;42.652;23.040;2023-05-19T13:27:22;24.83;;;13.13;;
28304;SDS011;15569;42.652;23.040;2023-05-19T13:29:48;9.65;;;7.10;;
28304;SDS011;15569;42.652;23.040;2023-05-19T13:32:14;23.08;;;12.77;;
28304;SDS011;15569;42.652;23.040;2023-05-19T13:34:39;21.95;;;12.60;;
28304;SDS011;15569;42.652;23.040;2023-05-19T13:37:05;11.43;;;6.97;;
28304;SDS011;15569;42.652;23.040;2023-05-19T13:39:33;14.85;;;8.02;;
28304;SDS011;15569;42.652;23.040;2023-05-19T13:41:59;16.08;;;8.13;;
28304;SDS011;15569;42.652;23.040;2023-05-19T13:44:24;12.07;;;7.07;;
28304;SDS011;15569;42.652;23.040;2023-05-19T13:46:49;8.52;;;6.28;;
28304;SDS011;15569;42.652;23.040;2023-05-19T13:49:15;35.70;;;18.10;;
28304;SDS011;15569;42.652;23.040;2023-05-19T13:51:41;25.15;;;12.80;;
28304;SDS011;15569;42.652;23.040;2023-05-19T13:54:07;16.95;;;6.68;;
28304;SDS011;15569;42.652;23.040;2023-05-19T13:56:32;16.80;;;9.73;;
28304;SDS011;15569;42.652;23.040;2023-05-19T13:58:58;17.05;;;9.07;;
28304;SDS011;15569;42.652;23.040;2023-05-19T14:01:23;8.45;;;6.40;;
28304;SDS011;15569;42.652;23.040;2023-05-19T14:03:49;17.20;;;8.48;;
28304;SDS011;15569;42.652;23.040;2023-05-19T14:06:14;19.95;;;11.30;;
28304;SDS011;15569;42.652;23.040;2023-05-19T14:08:40;14.52;;;7.65;;
28304;SDS011;15569;42.652;23.040;2023-05-19T14:11:06;14.23;;;7.20;;
28304;SDS011;15569;42.652;23.040;2023-05-19T14:13:31;11.23;;;5.75;;
28304;SDS011;15569;42.652;23.040;2023-05-19T14:15:56;8.55;;;5.15;;
28304;SDS011;15569;42.652;23.040;2023-05-19T14:18:22;8.90;;;5.93;;
28304;SDS011;15569;42.652;23.040;2023-05-19T14:20:47;13.73;;;6.07;;
28304;SDS011;15569;42.652;23.040;2023-05-19T14:23:13;11.38;;;5.55;;
28304;SDS011;15569;42.652;23.040;2023-05-19T14:25:40;7.95;;;5.80;;
28304;SDS011;15569;42.652;23.040;2023-05-19T14:28:05;12.32;;;6.60;;
28304;SDS011;15569;42.652;23.040;2023-05-19T14:30:30;8.75;;;5.90;;
28304;SDS011;15569;42.652;23.040;2023-05-19T14:32:56;10.77;;;6.68;;
28304;SDS011;15569;42.652;23.040;2023-05-19T14:35:21;14.23;;;5.93;;
28304;SDS011;15569;42.652;23.040;2023-05-19T14:37:47;13.10;;;7.72;;
28304;SDS011;15569;42.652;23.040;2023-05-19T14:40:12;19.00;;;8.65;;
28304;SDS011;15569;42.652;23.040;2023-05-19T14:42:37;8.93;;;6.00;;
28304;SDS011;15569;42.652;23.040;2023-05-19T14:45:03;14.07;;;8.10;;
28304;SDS011;15569;42.652;23.040;2023-05-19T14:47:29;21.55;;;11.15;;
28304;SDS011;15569;42.652;23.040;2023-05-19T14:49:54;9.32;;;6.00;;
28304;SDS011;15569;42.652;23.040;2023-05-19T14:52:20;23.90;;;8.27;;